sensor_id;sensor_type;location;lat;lon;timestamp;pressure;altitude;pressure_sealevel;temperature
79495;BMP180;68951;53.130;18.104;2023-07-16T00:00:34;100595.20;;;
79495;BMP180;68951;53.130;18.104;2023-07-16T00:03:22;100596.40;;;
79495;BMP180;68951;53.130;18.104;2023-07-16T00:05:51;100594.80;;;
79495;BMP180;68951;53.130;18.104;2023-07-16T00:08:18;100594.00;;;
79495;BMP180;68951;53.130;18.104;2023-07-16T00:10:45;100593.40;;;
79495;BMP180;68951;53.130;18.104;2023-07-16T00:13:12;100590.20;;;
79495;BMP180;68951;53.130;18.104;2023-07-16T00:15:39;100589.60;;;
79495;BMP180;68951;53.130;18.104;2023-07-16T00:18:06;100585.40;;;
79495;BMP180;68951;53.130;18.104;2023-07-16T00:20:33;100580.20;;;
79495;BMP180;68951;53.130;18.104;2023-07-16T00:23:00;100578.80;;;
79495;BMP180;68951;53.130;18.104;2023-07-16T00:25:27;100576.80;;;
79495;BMP180;68951;53.130;18.104;2023-07-16T00:27:53;100570.40;;;
79495;BMP180;68951;53.130;18.104;2023-07-16T00:30:20;100567.00;;;
79495;BMP180;68951;53.130;18.104;2023-07-16T00:32:47;100561.20;;;
79495;BMP180;68951;53.130;18.104;2023-07-16T00:35:14;100553.60;;;
79495;BMP180;68951;53.130;18.104;2023-07-16T00:37:41;100552.40;;;
79495;BMP180;68951;53.130;18.104;2023-07-16T00:40:08;100550.00;;;
79495;BMP180;68951;53.130;18.104;2023-07-16T00:42:35;100551.60;;;
79495;BMP180;68951;53.130;18.104;2023-07-16T00:45:02;100548.80;;;
79495;BMP180;68951;53.130;18.104;2023-07-16T00:47:35;100550.00;;;
79495;BMP180;68951;53.130;18.104;2023-07-16T00:50:02;100542.60;;;
79495;BMP180;68951;53.130;18.104;2023-07-16T00:52:29;100543.40;;;
79495;BMP180;68951;53.130;18.104;2023-07-16T00:54:56;100541.00;;;
79495;BMP180;68951;53.130;18.104;2023-07-16T00:57:23;100546.80;;;
79495;BMP180;68951;53.130;18.104;2023-07-16T00:59:50;100544.20;;;
79495;BMP180;68951;53.130;18.104;2023-07-16T01:02:17;100541.60;;;
79495;BMP180;68951;53.130;18.104;2023-07-16T01:04:44;100539.60;;;
79495;BMP180;68951;53.130;18.104;2023-07-16T01:07:13;100540.40;;;
79495;BMP180;68951;53.130;18.104;2023-07-16T01:09:42;100540.20;;;
79495;BMP180;68951;53.130;18.104;2023-07-16T01:12:11;100542.20;;;
79495;BMP180;68951;53.130;18.104;2023-07-16T01:14:40;100543.60;;;
79495;BMP180;68951;53.130;18.104;2023-07-16T01:17:08;100533.00;;;
79495;BMP180;68951;53.130;18.104;2023-07-16T01:19:35;100526.00;;;
79495;BMP180;68951;53.130;18.104;2023-07-16T01:22:35;100524.60;;;
79495;BMP180;68951;53.130;18.104;2023-07-16T01:25:36;100532.00;;;
79495;BMP180;68951;53.130;18.104;2023-07-16T01:31:03;100535.80;;;
79495;BMP180;68951;53.130;18.104;2023-07-16T01:33:32;100531.60;;;
79495;BMP180;68951;53.130;18.104;2023-07-16T01:36:00;100537.60;;;
79495;BMP180;68951;53.130;18.104;2023-07-16T01:38:27;100538.20;;;
79495;BMP180;68951;53.130;18.104;2023-07-16T01:40:54;100535.60;;;
79495;BMP180;68951;53.130;18.104;2023-07-16T01:43:21;100532.80;;;
79495;BMP180;68951;53.130;18.104;2023-07-16T01:45:47;100535.80;;;
79495;BMP180;68951;53.130;18.104;2023-07-16T01:48:33;100535.20;;;
79495;BMP180;68951;53.130;18.104;2023-07-16T01:51:02;100538.20;;;
79495;BMP180;68951;53.130;18.104;2023-07-16T01:53:30;100532.80;;;
79495;BMP180;68951;53.130;18.104;2023-07-16T01:55:58;100527.20;;;
79495;BMP180;68951;53.130;18.104;2023-07-16T01:58:27;100524.80;;;
79495;BMP180;68951;53.130;18.104;2023-07-16T02:00:53;100514.40;;;
79495;BMP180;68951;53.130;18.104;2023-07-16T02:03:20;100509.00;;;
79495;BMP180;68951;53.130;18.104;2023-07-16T02:05:48;100503.40;;;
79495;BMP180;68951;53.130;18.104;2023-07-16T02:08:14;100496.80;;;
79495;BMP180;68951;53.130;18.104;2023-07-16T02:10:42;100497.80;;;
79495;BMP180;68951;53.130;18.104;2023-07-16T02:13:09;100499.80;;;
79495;BMP180;68951;53.130;18.104;2023-07-16T02:15:36;100508.80;;;
79495;BMP180;68951;53.130;18.104;2023-07-16T02:18:06;100510.60;;;
79495;BMP180;68951;53.130;18.104;2023-07-16T02:20:33;100507.60;;;
79495;BMP180;68951;53.130;18.104;2023-07-16T02:22:59;100508.20;;;
79495;BMP180;68951;53.130;18.104;2023-07-16T02:25:26;100506.00;;;
79495;BMP180;68951;53.130;18.104;2023-07-16T02:27:53;100502.60;;;
79495;BMP180;68951;53.130;18.104;2023-07-16T02:30:20;100504.80;;;
79495;BMP180;68951;53.130;18.104;2023-07-16T02:32:47;100498.20;;;
79495;BMP180;68951;53.130;18.104;2023-07-16T02:35:15;100491.80;;;
79495;BMP180;68951;53.130;18.104;2023-07-16T02:37:42;100492.00;;;
79495;BMP180;68951;53.130;18.104;2023-07-16T02:40:09;100501.00;;;
79495;BMP180;68951;53.130;18.104;2023-07-16T02:42:35;100503.00;;;
79495;BMP180;68951;53.130;18.104;2023-07-16T02:45:03;100501.80;;;
79495;BMP180;68951;53.130;18.104;2023-07-16T02:47:30;100498.60;;;
79495;BMP180;68951;53.130;18.104;2023-07-16T02:49:57;100496.20;;;
79495;BMP180;68951;53.130;18.104;2023-07-16T02:52:23;100499.20;;;
79495;BMP180;68951;53.130;18.104;2023-07-16T02:54:50;100497.00;;;
79495;BMP180;68951;53.130;18.104;2023-07-16T02:57:17;100494.60;;;
79495;BMP180;68951;53.130;18.104;2023-07-16T02:59:44;100497.20;;;
79495;BMP180;68951;53.130;18.104;2023-07-16T03:02:11;100502.60;;;
79495;BMP180;68951;53.130;18.104;2023-07-16T03:04:37;100503.00;;;
79495;BMP180;68951;53.130;18.104;2023-07-16T03:07:05;100505.80;;;
79495;BMP180;68951;53.130;18.104;2023-07-16T03:09:32;100505.60;;;
79495;BMP180;68951;53.130;18.104;2023-07-16T03:11:58;100506.80;;;
79495;BMP180;68951;53.130;18.104;2023-07-16T03:14:25;100502.20;;;
79495;BMP180;68951;53.130;18.104;2023-07-16T03:16:52;100506.40;;;
79495;BMP180;68951;53.130;18.104;2023-07-16T03:19:19;100509.00;;;
79495;BMP180;68951;53.130;18.104;2023-07-16T03:21:46;100504.60;;;
79495;BMP180;68951;53.130;18.104;2023-07-16T03:24:12;100500.60;;;
79495;BMP180;68951;53.130;18.104;2023-07-16T03:26:39;100502.00;;;
79495;BMP180;68951;53.130;18.104;2023-07-16T03:29:06;100500.00;;;
79495;BMP180;68951;53.130;18.104;2023-07-16T03:31:33;100502.20;;;
79495;BMP180;68951;53.130;18.104;2023-07-16T03:34:00;100496.80;;;
79495;BMP180;68951;53.130;18.104;2023-07-16T03:36:27;100503.40;;;
79495;BMP180;68951;53.130;18.104;2023-07-16T03:38:53;100504.20;;;
79495;BMP180;68951;53.130;18.104;2023-07-16T03:41:20;100499.20;;;
79495;BMP180;68951;53.130;18.104;2023-07-16T03:43:47;100496.80;;;
79495;BMP180;68951;53.130;18.104;2023-07-16T03:46:14;100490.40;;;
79495;BMP180;68951;53.130;18.104;2023-07-16T03:48:41;100486.40;;;
79495;BMP180;68951;53.130;18.104;2023-07-16T03:51:07;100483.20;;;
79495;BMP180;68951;53.130;18.104;2023-07-16T03:53:34;100484.40;;;
79495;BMP180;68951;53.130;18.104;2023-07-16T03:56:01;100492.20;;;
79495;BMP180;68951;53.130;18.104;2023-07-16T03:58:28;100490.20;;;
79495;BMP180;68951;53.130;18.104;2023-07-16T04:00:56;100493.40;;;
79495;BMP180;68951;53.130;18.104;2023-07-16T04:03:22;100487.60;;;
79495;BMP180;68951;53.130;18.104;2023-07-16T04:05:50;100484.80;;;
79495;BMP180;68951;53.130;18.104;2023-07-16T04:08:17;100485.80;;;
79495;BMP180;68951;53.130;18.104;2023-07-16T04:10:44;100488.40;;;
79495;BMP180;68951;53.130;18.104;2023-07-16T04:13:10;100493.80;;;
79495;BMP180;68951;53.130;18.104;2023-07-16T04:15:37;100488.40;;;
79495;BMP180;68951;53.130;18.104;2023-07-16T04:18:04;100495.00;;;
79495;BMP180;68951;53.130;18.104;2023-07-16T04:20:31;100491.00;;;
79495;BMP180;68951;53.130;18.104;2023-07-16T04:23:00;100489.60;;;
79495;BMP180;68951;53.130;18.104;2023-07-16T04:25:27;100490.80;;;
79495;BMP180;68951;53.130;18.104;2023-07-16T04:27:53;100490.20;;;
79495;BMP180;68951;53.130;18.104;2023-07-16T04:30:20;100485.80;;;
79495;BMP180;68951;53.130;18.104;2023-07-16T04:32:47;100485.80;;;
79495;BMP180;68951;53.130;18.104;2023-07-16T04:35:14;100494.60;;;
79495;BMP180;68951;53.130;18.104;2023-07-16T04:37:41;100503.00;;;
79495;BMP180;68951;53.130;18.104;2023-07-16T04:40:08;100504.40;;;
79495;BMP180;68951;53.130;18.104;2023-07-16T04:42:35;100504.40;;;
79495;BMP180;68951;53.130;18.104;2023-07-16T04:45:03;100525.60;;;
79495;BMP180;68951;53.130;18.104;2023-07-16T04:47:31;100572.20;;;
79495;BMP180;68951;53.130;18.104;2023-07-16T04:49:59;100582.20;;;
79495;BMP180;68951;53.130;18.104;2023-07-16T04:52:26;100576.80;;;
79495;BMP180;68951;53.130;18.104;2023-07-16T04:54:52;100583.40;;;
79495;BMP180;68951;53.130;18.104;2023-07-16T04:57:19;100591.00;;;
79495;BMP180;68951;53.130;18.104;2023-07-16T04:59:46;100598.20;;;
79495;BMP180;68951;53.130;18.104;2023-07-16T05:02:13;100585.00;;;
79495;BMP180;68951;53.130;18.104;2023-07-16T05:04:42;100587.20;;;
79495;BMP180;68951;53.130;18.104;2023-07-16T05:07:10;100605.20;;;
79495;BMP180;68951;53.130;18.104;2023-07-16T05:09:37;100616.40;;;
79495;BMP180;68951;53.130;18.104;2023-07-16T05:12:05;100613.60;;;
79495;BMP180;68951;53.130;18.104;2023-07-16T05:14:47;100605.20;;;
79495;BMP180;68951;53.130;18.104;2023-07-16T05:17:14;100599.40;;;
79495;BMP180;68951;53.130;18.104;2023-07-16T05:19:41;100596.00;;;
79495;BMP180;68951;53.130;18.104;2023-07-16T05:22:09;100606.20;;;
79495;BMP180;68951;53.130;18.104;2023-07-16T05:24:36;100599.00;;;
79495;BMP180;68951;53.130;18.104;2023-07-16T05:27:03;100599.60;;;
79495;BMP180;68951;53.130;18.104;2023-07-16T05:29:30;100592.20;;;
79495;BMP180;68951;53.130;18.104;2023-07-16T05:31:57;100594.60;;;
79495;BMP180;68951;53.130;18.104;2023-07-16T05:34:23;100586.20;;;
79495;BMP180;68951;53.130;18.104;2023-07-16T05:36:53;100574.80;;;
79495;BMP180;68951;53.130;18.104;2023-07-16T05:39:22;100588.80;;;
79495;BMP180;68951;53.130;18.104;2023-07-16T05:41:48;100591.20;;;
79495;BMP180;68951;53.130;18.104;2023-07-16T05:44:16;100602.80;;;
79495;BMP180;68951;53.130;18.104;2023-07-16T05:46:43;100611.00;;;
79495;BMP180;68951;53.130;18.104;2023-07-16T05:49:09;100610.00;;;
79495;BMP180;68951;53.130;18.104;2023-07-16T05:51:36;100607.40;;;
79495;BMP180;68951;53.130;18.104;2023-07-16T05:54:03;100605.00;;;
79495;BMP180;68951;53.130;18.104;2023-07-16T05:56:30;100615.40;;;
79495;BMP180;68951;53.130;18.104;2023-07-16T05:58:57;100612.40;;;
79495;BMP180;68951;53.130;18.104;2023-07-16T06:01:24;100609.60;;;
79495;BMP180;68951;53.130;18.104;2023-07-16T06:03:51;100608.40;;;
79495;BMP180;68951;53.130;18.104;2023-07-16T06:06:18;100617.60;;;
79495;BMP180;68951;53.130;18.104;2023-07-16T06:08:45;100618.00;;;
79495;BMP180;68951;53.130;18.104;2023-07-16T06:11:12;100617.80;;;
79495;BMP180;68951;53.130;18.104;2023-07-16T06:13:40;100630.60;;;
79495;BMP180;68951;53.130;18.104;2023-07-16T06:16:06;100633.60;;;
79495;BMP180;68951;53.130;18.104;2023-07-16T06:18:33;100640.20;;;
79495;BMP180;68951;53.130;18.104;2023-07-16T06:21:00;100641.40;;;
79495;BMP180;68951;53.130;18.104;2023-07-16T06:23:27;100650.40;;;
79495;BMP180;68951;53.130;18.104;2023-07-16T06:25:57;100661.20;;;
79495;BMP180;68951;53.130;18.104;2023-07-16T06:28:24;100666.80;;;
79495;BMP180;68951;53.130;18.104;2023-07-16T06:30:50;100671.40;;;
79495;BMP180;68951;53.130;18.104;2023-07-16T06:33:20;100665.40;;;
79495;BMP180;68951;53.130;18.104;2023-07-16T06:35:48;100675.40;;;
79495;BMP180;68951;53.130;18.104;2023-07-16T06:38:15;100666.60;;;
79495;BMP180;68951;53.130;18.104;2023-07-16T06:40:52;100675.60;;;
79495;BMP180;68951;53.130;18.104;2023-07-16T06:43:19;100679.20;;;
79495;BMP180;68951;53.130;18.104;2023-07-16T06:45:46;100675.40;;;
79495;BMP180;68951;53.130;18.104;2023-07-16T06:48:12;100678.60;;;
79495;BMP180;68951;53.130;18.104;2023-07-16T06:50:39;100678.40;;;
79495;BMP180;68951;53.130;18.104;2023-07-16T06:53:06;100679.80;;;
79495;BMP180;68951;53.130;18.104;2023-07-16T06:55:33;100679.20;;;
79495;BMP180;68951;53.130;18.104;2023-07-16T06:58:01;100682.80;;;
79495;BMP180;68951;53.130;18.104;2023-07-16T07:00:28;100677.80;;;
79495;BMP180;68951;53.130;18.104;2023-07-16T07:02:55;100675.20;;;
79495;BMP180;68951;53.130;18.104;2023-07-16T07:05:22;100671.20;;;
79495;BMP180;68951;53.130;18.104;2023-07-16T07:07:49;100670.60;;;
79495;BMP180;68951;53.130;18.104;2023-07-16T07:10:16;100676.00;;;
79495;BMP180;68951;53.130;18.104;2023-07-16T07:12:43;100688.40;;;
79495;BMP180;68951;53.130;18.104;2023-07-16T07:15:10;100696.40;;;
79495;BMP180;68951;53.130;18.104;2023-07-16T07:17:37;100698.20;;;
79495;BMP180;68951;53.130;18.104;2023-07-16T07:20:04;100700.60;;;
79495;BMP180;68951;53.130;18.104;2023-07-16T07:22:32;100694.60;;;
79495;BMP180;68951;53.130;18.104;2023-07-16T07:24:58;100703.20;;;
79495;BMP180;68951;53.130;18.104;2023-07-16T07:27:25;100709.00;;;
79495;BMP180;68951;53.130;18.104;2023-07-16T07:29:52;100705.20;;;
79495;BMP180;68951;53.130;18.104;2023-07-16T07:32:22;100702.00;;;
79495;BMP180;68951;53.130;18.104;2023-07-16T07:34:50;100709.20;;;
79495;BMP180;68951;53.130;18.104;2023-07-16T07:37:17;100711.20;;;
79495;BMP180;68951;53.130;18.104;2023-07-16T07:39:44;100716.60;;;
79495;BMP180;68951;53.130;18.104;2023-07-16T07:42:14;100722.40;;;
79495;BMP180;68951;53.130;18.104;2023-07-16T07:44:41;100724.40;;;
79495;BMP180;68951;53.130;18.104;2023-07-16T07:47:08;100728.40;;;
79495;BMP180;68951;53.130;18.104;2023-07-16T07:49:35;100720.80;;;
79495;BMP180;68951;53.130;18.104;2023-07-16T07:52:02;100715.40;;;
79495;BMP180;68951;53.130;18.104;2023-07-16T07:54:31;100727.60;;;
79495;BMP180;68951;53.130;18.104;2023-07-16T07:57:04;100718.80;;;
79495;BMP180;68951;53.130;18.104;2023-07-16T07:59:31;100721.40;;;
79495;BMP180;68951;53.130;18.104;2023-07-16T08:01:58;100732.00;;;
79495;BMP180;68951;53.130;18.104;2023-07-16T08:04:25;100732.60;;;
79495;BMP180;68951;53.130;18.104;2023-07-16T08:06:54;100736.00;;;
79495;BMP180;68951;53.130;18.104;2023-07-16T08:09:21;100739.80;;;
79495;BMP180;68951;53.130;18.104;2023-07-16T08:11:47;100734.80;;;
79495;BMP180;68951;53.130;18.104;2023-07-16T08:14:14;100742.80;;;
79495;BMP180;68951;53.130;18.104;2023-07-16T08:16:41;100749.60;;;
79495;BMP180;68951;53.130;18.104;2023-07-16T08:19:08;100748.20;;;
79495;BMP180;68951;53.130;18.104;2023-07-16T08:21:36;100748.80;;;
79495;BMP180;68951;53.130;18.104;2023-07-16T08:24:05;100753.80;;;
79495;BMP180;68951;53.130;18.104;2023-07-16T08:26:33;100748.80;;;
79495;BMP180;68951;53.130;18.104;2023-07-16T08:29:00;100733.00;;;
79495;BMP180;68951;53.130;18.104;2023-07-16T08:31:28;100714.80;;;
79495;BMP180;68951;53.130;18.104;2023-07-16T08:33:55;100720.40;;;
79495;BMP180;68951;53.130;18.104;2023-07-16T08:36:22;100726.80;;;
79495;BMP180;68951;53.130;18.104;2023-07-16T08:38:49;100737.40;;;
79495;BMP180;68951;53.130;18.104;2023-07-16T08:41:16;100748.80;;;
79495;BMP180;68951;53.130;18.104;2023-07-16T08:43:47;100756.20;;;
79495;BMP180;68951;53.130;18.104;2023-07-16T08:46:15;100762.40;;;
79495;BMP180;68951;53.130;18.104;2023-07-16T08:48:47;100771.00;;;
79495;BMP180;68951;53.130;18.104;2023-07-16T08:51:15;100775.40;;;
79495;BMP180;68951;53.130;18.104;2023-07-16T08:53:43;100774.20;;;
79495;BMP180;68951;53.130;18.104;2023-07-16T08:56:10;100788.40;;;
79495;BMP180;68951;53.130;18.104;2023-07-16T08:58:38;100788.60;;;
79495;BMP180;68951;53.130;18.104;2023-07-16T09:01:06;100789.20;;;
79495;BMP180;68951;53.130;18.104;2023-07-16T09:03:33;100795.00;;;
79495;BMP180;68951;53.130;18.104;2023-07-16T09:06:00;100812.60;;;
79495;BMP180;68951;53.130;18.104;2023-07-16T09:08:28;100816.60;;;
79495;BMP180;68951;53.130;18.104;2023-07-16T09:10:56;100825.80;;;
79495;BMP180;68951;53.130;18.104;2023-07-16T09:13:24;100834.60;;;
79495;BMP180;68951;53.130;18.104;2023-07-16T09:15:56;100838.20;;;
79495;BMP180;68951;53.130;18.104;2023-07-16T09:18:26;100845.20;;;
79495;BMP180;68951;53.130;18.104;2023-07-16T09:21:00;100854.20;;;
79495;BMP180;68951;53.130;18.104;2023-07-16T09:23:33;100870.40;;;
79495;BMP180;68951;53.130;18.104;2023-07-16T09:26:00;100870.20;;;
79495;BMP180;68951;53.130;18.104;2023-07-16T09:28:31;100881.00;;;
79495;BMP180;68951;53.130;18.104;2023-07-16T09:31:05;100887.20;;;
79495;BMP180;68951;53.130;18.104;2023-07-16T09:33:34;100890.60;;;
79495;BMP180;68951;53.130;18.104;2023-07-16T09:36:03;100895.60;;;
79495;BMP180;68951;53.130;18.104;2023-07-16T09:38:31;100897.00;;;
79495;BMP180;68951;53.130;18.104;2023-07-16T09:41:00;100909.40;;;
79495;BMP180;68951;53.130;18.104;2023-07-16T09:43:29;100918.00;;;
79495;BMP180;68951;53.130;18.104;2023-07-16T09:45:56;100916.40;;;
79495;BMP180;68951;53.130;18.104;2023-07-16T09:48:23;100910.20;;;
79495;BMP180;68951;53.130;18.104;2023-07-16T09:50:53;100918.20;;;
79495;BMP180;68951;53.130;18.104;2023-07-16T09:53:20;100914.40;;;
79495;BMP180;68951;53.130;18.104;2023-07-16T09:55:48;100909.80;;;
79495;BMP180;68951;53.130;18.104;2023-07-16T09:58:18;100919.00;;;
79495;BMP180;68951;53.130;18.104;2023-07-16T10:00:47;100912.60;;;
79495;BMP180;68951;53.130;18.104;2023-07-16T10:03:15;100913.80;;;
79495;BMP180;68951;53.130;18.104;2023-07-16T10:05:43;100926.00;;;
79495;BMP180;68951;53.130;18.104;2023-07-16T10:08:19;100927.80;;;
79495;BMP180;68951;53.130;18.104;2023-07-16T10:10:48;100937.40;;;
79495;BMP180;68951;53.130;18.104;2023-07-16T10:13:16;100937.40;;;
79495;BMP180;68951;53.130;18.104;2023-07-16T10:15:55;100951.40;;;
79495;BMP180;68951;53.130;18.104;2023-07-16T10:18:30;100955.40;;;
79495;BMP180;68951;53.130;18.104;2023-07-16T10:21:08;100968.40;;;
79495;BMP180;68951;53.130;18.104;2023-07-16T10:23:43;100957.20;;;
79495;BMP180;68951;53.130;18.104;2023-07-16T10:26:15;100951.40;;;
79495;BMP180;68951;53.130;18.104;2023-07-16T10:28:42;100961.20;;;
79495;BMP180;68951;53.130;18.104;2023-07-16T10:31:24;100941.40;;;
79495;BMP180;68951;53.130;18.104;2023-07-16T10:34:02;100915.20;;;
79495;BMP180;68951;53.130;18.104;2023-07-16T10:36:40;100908.60;;;
79495;BMP180;68951;53.130;18.104;2023-07-16T10:39:07;100910.40;;;
79495;BMP180;68951;53.130;18.104;2023-07-16T10:41:34;100913.80;;;
79495;BMP180;68951;53.130;18.104;2023-07-16T10:44:01;100913.80;;;
79495;BMP180;68951;53.130;18.104;2023-07-16T10:46:28;100914.20;;;
79495;BMP180;68951;53.130;18.104;2023-07-16T10:48:57;100921.00;;;
79495;BMP180;68951;53.130;18.104;2023-07-16T10:51:27;100933.20;;;
79495;BMP180;68951;53.130;18.104;2023-07-16T10:53:57;100939.00;;;
79495;BMP180;68951;53.130;18.104;2023-07-16T10:56:25;100919.80;;;
79495;BMP180;68951;53.130;18.104;2023-07-16T10:58:52;100923.00;;;
79495;BMP180;68951;53.130;18.104;2023-07-16T11:01:19;100928.60;;;
79495;BMP180;68951;53.130;18.104;2023-07-16T11:03:46;100928.20;;;
79495;BMP180;68951;53.130;18.104;2023-07-16T11:06:13;100923.60;;;
79495;BMP180;68951;53.130;18.104;2023-07-16T11:08:42;100950.60;;;
79495;BMP180;68951;53.130;18.104;2023-07-16T11:11:09;100954.20;;;
79495;BMP180;68951;53.130;18.104;2023-07-16T11:13:35;100938.80;;;
79495;BMP180;68951;53.130;18.104;2023-07-16T11:16:09;100927.60;;;
79495;BMP180;68951;53.130;18.104;2023-07-16T11:18:37;100932.80;;;
79495;BMP180;68951;53.130;18.104;2023-07-16T11:21:04;100929.80;;;
79495;BMP180;68951;53.130;18.104;2023-07-16T11:23:35;100939.40;;;
79495;BMP180;68951;53.130;18.104;2023-07-16T11:26:03;100945.00;;;
79495;BMP180;68951;53.130;18.104;2023-07-16T11:28:41;100949.80;;;
79495;BMP180;68951;53.130;18.104;2023-07-16T11:31:16;100929.40;;;
79495;BMP180;68951;53.130;18.104;2023-07-16T11:33:46;100929.00;;;
79495;BMP180;68951;53.130;18.104;2023-07-16T11:36:13;100925.40;;;
79495;BMP180;68951;53.130;18.104;2023-07-16T11:38:40;100924.40;;;
79495;BMP180;68951;53.130;18.104;2023-07-16T11:41:08;100924.00;;;
79495;BMP180;68951;53.130;18.104;2023-07-16T11:43:35;100923.60;;;
79495;BMP180;68951;53.130;18.104;2023-07-16T11:46:04;100936.00;;;
79495;BMP180;68951;53.130;18.104;2023-07-16T11:48:31;100937.60;;;
79495;BMP180;68951;53.130;18.104;2023-07-16T11:50:58;100933.40;;;
79495;BMP180;68951;53.130;18.104;2023-07-16T11:53:25;100932.60;;;
79495;BMP180;68951;53.130;18.104;2023-07-16T11:55:53;100928.20;;;
79495;BMP180;68951;53.130;18.104;2023-07-16T11:58:20;100933.80;;;
79495;BMP180;68951;53.130;18.104;2023-07-16T12:00:46;100936.40;;;
79495;BMP180;68951;53.130;18.104;2023-07-16T12:03:13;100928.80;;;
79495;BMP180;68951;53.130;18.104;2023-07-16T12:05:40;100935.40;;;
79495;BMP180;68951;53.130;18.104;2023-07-16T12:08:07;100936.60;;;
79495;BMP180;68951;53.130;18.104;2023-07-16T12:10:41;100935.80;;;
79495;BMP180;68951;53.130;18.104;2023-07-16T12:13:08;100930.00;;;
79495;BMP180;68951;53.130;18.104;2023-07-16T12:15:35;100929.80;;;
79495;BMP180;68951;53.130;18.104;2023-07-16T12:18:02;100928.80;;;
79495;BMP180;68951;53.130;18.104;2023-07-16T12:20:29;100934.20;;;
79495;BMP180;68951;53.130;18.104;2023-07-16T12:22:56;100933.80;;;
79495;BMP180;68951;53.130;18.104;2023-07-16T12:25:23;100938.00;;;
79495;BMP180;68951;53.130;18.104;2023-07-16T12:27:50;100936.40;;;
79495;BMP180;68951;53.130;18.104;2023-07-16T12:30:16;100938.40;;;
79495;BMP180;68951;53.130;18.104;2023-07-16T12:32:43;100950.20;;;
79495;BMP180;68951;53.130;18.104;2023-07-16T12:35:10;100946.60;;;
79495;BMP180;68951;53.130;18.104;2023-07-16T12:37:37;100945.00;;;
79495;BMP180;68951;53.130;18.104;2023-07-16T12:40:05;100947.00;;;
79495;BMP180;68951;53.130;18.104;2023-07-16T12:42:33;100941.00;;;
79495;BMP180;68951;53.130;18.104;2023-07-16T12:45:02;100941.40;;;
79495;BMP180;68951;53.130;18.104;2023-07-16T12:47:29;100942.20;;;
79495;BMP180;68951;53.130;18.104;2023-07-16T12:49:56;100939.00;;;
79495;BMP180;68951;53.130;18.104;2023-07-16T12:52:22;100940.60;;;
79495;BMP180;68951;53.130;18.104;2023-07-16T12:54:49;100931.60;;;
79495;BMP180;68951;53.130;18.104;2023-07-16T12:57:17;100936.20;;;
79495;BMP180;68951;53.130;18.104;2023-07-16T12:59:44;100941.60;;;
79495;BMP180;68951;53.130;18.104;2023-07-16T13:02:11;100943.00;;;
79495;BMP180;68951;53.130;18.104;2023-07-16T13:04:38;100939.80;;;
79495;BMP180;68951;53.130;18.104;2023-07-16T13:07:05;100945.40;;;
79495;BMP180;68951;53.130;18.104;2023-07-16T13:09:32;100941.20;;;
79495;BMP180;68951;53.130;18.104;2023-07-16T13:11:58;100945.80;;;
79495;BMP180;68951;53.130;18.104;2023-07-16T13:14:26;100947.40;;;
79495;BMP180;68951;53.130;18.104;2023-07-16T13:16:53;100954.20;;;
79495;BMP180;68951;53.130;18.104;2023-07-16T13:19:20;100952.60;;;
79495;BMP180;68951;53.130;18.104;2023-07-16T13:21:46;100947.80;;;
79495;BMP180;68951;53.130;18.104;2023-07-16T13:24:13;100946.00;;;
79495;BMP180;68951;53.130;18.104;2023-07-16T13:26:40;100951.00;;;
79495;BMP180;68951;53.130;18.104;2023-07-16T13:29:07;100954.20;;;
79495;BMP180;68951;53.130;18.104;2023-07-16T13:31:34;100953.00;;;
79495;BMP180;68951;53.130;18.104;2023-07-16T13:34:01;100950.00;;;
79495;BMP180;68951;53.130;18.104;2023-07-16T13:36:28;100943.60;;;
79495;BMP180;68951;53.130;18.104;2023-07-16T13:38:55;100942.40;;;
79495;BMP180;68951;53.130;18.104;2023-07-16T13:41:22;100949.00;;;
79495;BMP180;68951;53.130;18.104;2023-07-16T13:43:49;100945.40;;;
79495;BMP180;68951;53.130;18.104;2023-07-16T13:46:16;100938.20;;;
79495;BMP180;68951;53.130;18.104;2023-07-16T13:48:43;100941.40;;;
79495;BMP180;68951;53.130;18.104;2023-07-16T13:51:10;100940.00;;;
79495;BMP180;68951;53.130;18.104;2023-07-16T13:53:37;100944.20;;;
79495;BMP180;68951;53.130;18.104;2023-07-16T13:56:04;100946.40;;;
79495;BMP180;68951;53.130;18.104;2023-07-16T13:58:31;100951.00;;;
79495;BMP180;68951;53.130;18.104;2023-07-16T14:00:58;100952.60;;;
79495;BMP180;68951;53.130;18.104;2023-07-16T14:03:25;100954.20;;;
79495;BMP180;68951;53.130;18.104;2023-07-16T14:05:52;100946.40;;;
79495;BMP180;68951;53.130;18.104;2023-07-16T14:08:18;100942.20;;;
79495;BMP180;68951;53.130;18.104;2023-07-16T14:10:45;100946.60;;;
79495;BMP180;68951;53.130;18.104;2023-07-16T14:13:12;100937.80;;;
79495;BMP180;68951;53.130;18.104;2023-07-16T14:15:39;100932.60;;;
79495;BMP180;68951;53.130;18.104;2023-07-16T14:18:06;100936.60;;;
79495;BMP180;68951;53.130;18.104;2023-07-16T14:20:33;100939.60;;;
79495;BMP180;68951;53.130;18.104;2023-07-16T14:23:01;100935.60;;;
79495;BMP180;68951;53.130;18.104;2023-07-16T14:25:27;100938.40;;;
79495;BMP180;68951;53.130;18.104;2023-07-16T14:27:54;100941.40;;;
79495;BMP180;68951;53.130;18.104;2023-07-16T14:30:21;100940.80;;;
79495;BMP180;68951;53.130;18.104;2023-07-16T14:32:48;100940.60;;;
79495;BMP180;68951;53.130;18.104;2023-07-16T14:35:15;100932.80;;;
79495;BMP180;68951;53.130;18.104;2023-07-16T14:37:42;100934.40;;;
79495;BMP180;68951;53.130;18.104;2023-07-16T14:40:10;100929.40;;;
79495;BMP180;68951;53.130;18.104;2023-07-16T14:42:37;100925.60;;;
79495;BMP180;68951;53.130;18.104;2023-07-16T14:45:04;100930.20;;;
79495;BMP180;68951;53.130;18.104;2023-07-16T14:47:32;100927.80;;;
79495;BMP180;68951;53.130;18.104;2023-07-16T14:49:58;100929.40;;;
79495;BMP180;68951;53.130;18.104;2023-07-16T14:52:26;100930.80;;;
79495;BMP180;68951;53.130;18.104;2023-07-16T14:54:53;100930.00;;;